Time;durP1;ratioP1;P1;durP2;ratioP2;P2;SDS_P1;SDS_P2;PMS_P1;PMS_P2;Temp;Humidity;BMP_temperature;BMP_pressure;BME280_temperature;BME280_humidity;BME280_pressure;Samples;Min_cycle;Max_cycle;Signal;HPM_P1;HPM_P2
2024/01/01 00:01:56;;;;;;;58.53;37.07;;;;;;;3.46;93.15;99561.81;4992127;28;20291;-63
2024/01/01 00:04:26;;;;;;;66.70;39.17;;;;;;;3.44;92.58;99548.19;4991259;28;20215;-62
2024/01/01 00:06:54;;;;;;;57.07;36.37;;;;;;;3.43;92.98;99545.66;4992107;28;20311;-61
2024/01/01 00:09:22;;;;;;;60.37;36.33;;;;;;;3.41;93.05;99548.16;4992354;28;20609;-61
2024/01/01 00:11:49;;;;;;;60.97;37.97;;;;;;;3.41;92.79;99544.75;4992434;28;20577;-61
2024/01/01 00:14:17;;;;;;;61.53;40.50;;;;;;;3.37;93.16;99552.38;4991936;28;20207;-61
2024/01/01 00:16:46;;;;;;;61.07;38.63;;;;;;;3.34;93.23;99537.06;4992282;28;20678;-60
2024/01/01 00:19:15;;;;;;;60.53;37.87;;;;;;;3.30;93.21;99540.41;4990892;28;20718;-60
2024/01/01 00:21:43;;;;;;;60.03;38.70;;;;;;;3.29;93.94;99548.91;4991619;28;20219;-59
2024/01/01 00:24:11;;;;;;;56.73;36.07;;;;;;;3.28;93.21;99554.84;4991848;28;20283;-61
2024/01/01 00:26:39;;;;;;;56.30;34.93;;;;;;;3.25;93.54;99552.25;4991921;28;20242;-61
2024/01/01 00:29:09;;;;;;;57.30;36.33;;;;;;;3.26;94.16;99563.28;4991999;28;20212;-64
2024/01/01 00:31:48;;;;;;;62.50;38.07;;;;;;;3.25;93.99;99557.34;4991685;28;20572;-61
2024/01/01 00:34:18;;;;;;;55.63;34.13;;;;;;;3.28;94.42;99543.81;4992196;28;20652;-60
2024/01/01 00:36:46;;;;;;;57.73;33.97;;;;;;;3.28;94.59;99536.16;4991755;28;20215;-58
2024/01/01 00:39:13;;;;;;;48.57;32.20;;;;;;;3.29;94.68;99528.53;4991134;28;20199;-61
2024/01/01 00:41:41;;;;;;;52.33;31.60;;;;;;;3.29;94.20;99530.22;4991946;28;21171;-62
2024/01/01 00:44:09;;;;;;;48.90;28.67;;;;;;;3.28;94.03;99526.84;4991571;28;20207;-61
2024/01/01 00:46:37;;;;;;;49.60;27.97;;;;;;;3.27;94.30;99527.66;4992007;28;20685;-61
2024/01/01 00:49:06;;;;;;;44.43;27.77;;;;;;;3.26;94.35;99528.50;4991936;28;20665;-60
2024/01/01 00:51:35;;;;;;;43.93;27.60;;;;;;;3.25;94.55;99536.97;4991576;28;20200;-61
2024/01/01 00:54:03;;;;;;;51.23;29.57;;;;;;;3.28;95.10;99531.06;4992008;28;20262;-62
2024/01/01 00:56:31;;;;;;;43.27;26.37;;;;;;;3.29;95.31;99538.72;4991144;28;20660;-60
2024/01/01 00:58:59;;;;;;;43.53;24.80;;;;;;;3.31;95.09;99538.72;4991664;28;20208;-60
2024/01/01 01:01:27;;;;;;;40.87;24.97;;;;;;;3.35;95.27;99537.91;4991507;28;20224;-63
2024/01/01 01:03:55;;;;;;;36.83;22.67;;;;;;;3.37;94.69;99541.34;4991787;28;20680;-63
2024/01/01 01:06:23;;;;;;;37.23;22.27;;;;;;;3.37;94.64;99537.09;4991696;28;20211;-61
2024/01/01 01:08:54;;;;;;;34.13;21.77;;;;;;;3.38;94.46;99543.88;4994049;28;20269;-60
2024/01/01 01:11:22;;;;;;;36.67;21.50;;;;;;;3.40;94.77;99533.72;4994797;28;20228;-64
2024/01/01 01:13:50;;;;;;;37.10;23.03;;;;;;;3.39;94.27;99525.25;4995253;28;20212;-61
2024/01/01 01:16:18;;;;;;;32.07;21.40;;;;;;;3.41;94.09;99521.84;4995697;28;20566;-59
2024/01/01 01:18:46;;;;;;;35.30;21.20;;;;;;;3.40;94.09;99521.00;4995771;28;20538;-64
2024/01/01 01:21:14;;;;;;;33.73;21.17;;;;;;;3.36;94.52;99525.22;4995105;28;20333;-60
2024/01/01 01:23:43;;;;;;;36.33;21.53;;;;;;;3.35;94.63;99526.06;4995122;28;20231;-66
2024/01/01 01:26:12;;;;;;;32.00;21.57;;;;;;;3.34;94.55;99534.50;4995451;28;20192;-64
2024/01/01 01:28:40;;;;;;;32.00;21.37;;;;;;;3.37;94.96;99537.09;4994314;28;20239;-62
2024/01/01 01:31:08;;;;;;;31.17;19.50;;;;;;;3.39;95.04;99530.34;4995166;28;20207;-64
2024/01/01 01:33:36;;;;;;;30.40;19.57;;;;;;;3.43;94.86;99530.38;4995366;28;20578;-60
2024/01/01 01:36:05;;;;;;;32.77;20.00;;;;;;;3.45;94.46;99538.84;4995042;28;20204;-60
2024/01/01 01:38:35;;;;;;;32.90;19.63;;;;;;;3.44;94.92;99532.91;4994769;28;20200;-61
2024/01/01 01:41:03;;;;;;;31.73;20.47;;;;;;;3.48;94.52;99538.88;4995065;28;20270;-60
2024/01/01 01:43:33;;;;;;;31.10;20.03;;;;;;;3.49;94.87;99535.50;4994667;28;20207;-62
2024/01/01 01:46:02;;;;;;;33.80;19.93;;;;;;;3.51;94.59;99539.78;4994166;28;20289;-61
2024/01/01 01:48:31;;;;;;;34.20;19.73;;;;;;;3.50;94.65;99545.72;4994674;28;20254;-60
2024/01/01 01:51:00;;;;;;;32.80;20.00;;;;;;;3.50;94.75;99542.28;4994700;28;20199;-63
2024/01/01 01:53:30;;;;;;;28.07;19.13;;;;;;;3.52;94.53;99535.53;4994916;28;20392;-61
2024/01/01 01:56:03;;;;;;;32.73;19.37;;;;;;;3.52;94.49;99532.97;4994783;28;20489;-60
2024/01/01 01:58:33;;;;;;;33.20;19.87;;;;;;;3.50;94.42;99525.34;4994567;28;20287;-62
2024/01/01 02:01:01;;;;;;;35.33;20.07;;;;;;;3.51;94.22;99523.63;4993497;28;20215;-62
2024/01/01 02:03:30;;;;;;;33.87;20.07;;;;;;;3.49;94.00;99528.69;4994729;28;20660;-68
2024/01/01 02:05:58;;;;;;;30.27;19.23;;;;;;;3.47;93.93;99516.81;4994647;28;20215;-61
2024/01/01 02:08:26;;;;;;;31.50;18.93;;;;;;;3.46;94.32;99518.50;4994717;28;20307;-59
2024/01/01 02:10:54;;;;;;;32.40;19.70;;;;;;;3.47;93.98;99516.81;4994591;28;20254;-60
2024/01/01 02:13:24;;;;;;;31.83;19.73;;;;;;;3.41;93.88;99506.56;4994560;28;20204;-61
2024/01/01 02:15:54;;;;;;;35.03;20.80;;;;;;;3.44;94.13;99507.44;4994452;28;20689;-62
2024/01/01 02:18:25;;;;;;;58.17;31.33;;;;;;;3.42;94.68;99511.66;4993325;28;20215;-67
2024/01/01 02:20:55;;;;;;;28.33;18.33;;;;;;;3.42;94.61;99519.28;4994016;28;20216;-62
2024/01/01 02:23:25;;;;;;;32.97;19.17;;;;;;;3.42;94.98;99511.66;4994000;28;20246;-60
2024/01/01 02:25:54;;;;;;;31.17;18.37;;;;;;;3.43;94.82;99510.00;4994044;28;20259;-64
2024/01/01 02:28:22;;;;;;;33.60;20.27;;;;;;;3.45;94.79;99510.84;4993941;28;20233;-62
2024/01/01 02:30:50;;;;;;;32.47;19.77;;;;;;;3.47;95.11;99509.16;4994309;28;20582;-60
2024/01/01 02:33:18;;;;;;;33.87;19.07;;;;;;;3.49;94.90;99507.47;4993877;28;20204;-61
2024/01/01 02:35:46;;;;;;;36.53;20.00;;;;;;;3.48;94.79;99501.53;4992866;28;20247;-61
2024/01/01 02:38:13;;;;;;;31.93;20.00;;;;;;;3.49;94.70;99499.84;4994113;28;20218;-61
2024/01/01 02:40:43;;;;;;;28.73;19.00;;;;;;;3.48;94.38;99500.69;4993946;28;20641;-59
2024/01/01 02:43:11;;;;;;;28.83;18.77;;;;;;;3.48;94.58;99496.44;4993877;28;20215;-62
2024/01/01 02:45:39;;;;;;;33.07;19.43;;;;;;;3.48;94.21;99491.34;4993620;28;20219;-62
2024/01/01 02:48:08;;;;;;;29.27;18.77;;;;;;;3.47;94.23;99481.16;4993636;28;20210;-61
2024/01/01 02:50:36;;;;;;;30.77;19.17;;;;;;;3.46;94.09;99476.88;4992416;28;20258;-59
2024/01/01 02:53:05;;;;;;;31.80;18.23;;;;;;;3.44;94.16;99474.34;4993489;28;20214;-60
2024/01/01 02:55:33;;;;;;;30.47;19.57;;;;;;;3.43;94.67;99484.53;4993747;28;20200;-59
2024/01/01 02:58:05;;;;;;;32.80;20.07;;;;;;;3.38;94.32;99482.75;4993515;28;20352;-61
2024/01/01 03:00:33;;;;;;;33.60;19.93;;;;;;;3.36;94.67;99474.28;4993289;28;20239;-59
2024/01/01 03:03:03;;;;;;;32.57;20.23;;;;;;;3.34;94.15;99477.63;4993171;28;20232;-59
2024/01/01 03:05:31;;;;;;;33.60;19.70;;;;;;;3.30;94.02;99475.91;4990829;28;20204;-63
2024/01/01 03:07:59;;;;;;;30.27;19.77;;;;;;;3.27;94.72;99475.88;4993596;28;20207;-63
2024/01/01 03:10:27;;;;;;;34.47;21.23;;;;;;;3.25;94.85;99478.44;4993110;28;20299;-62
2024/01/01 03:12:55;;;;;;;32.00;20.27;;;;;;;3.24;95.12;99469.09;4993433;28;20577;-62
2024/01/01 03:15:24;;;;;;;32.70;19.50;;;;;;;3.25;95.33;99469.94;4993260;28;20220;-60
2024/01/01 03:17:52;;;;;;;32.10;20.50;;;;;;;3.23;94.78;99469.06;4992921;28;20211;-59
2024/01/01 03:20:20;;;;;;;31.20;18.47;;;;;;;3.26;96.02;99472.50;4991747;28;20258;-58
2024/01/01 03:22:48;;;;;;;31.53;20.13;;;;;;;3.27;95.42;99475.88;4992823;28;20791;-61
2024/01/01 03:25:16;;;;;;;33.37;20.00;;;;;;;3.28;95.47;99475.06;4993150;28;20246;-60
2024/01/01 03:27:44;;;;;;;31.90;18.53;;;;;;;3.30;95.36;99478.47;4992657;28;20266;-61
2024/01/01 03:30:13;;;;;;;33.97;20.50;;;;;;;3.30;95.23;99465.72;4992315;28;20231;-60
2024/01/01 03:32:42;;;;;;;31.20;19.57;;;;;;;3.33;95.25;99474.25;4993431;28;20620;-60
2024/01/01 03:35:10;;;;;;;31.87;19.43;;;;;;;3.34;95.79;99470.84;4993058;28;20723;-60
2024/01/01 03:37:38;;;;;;;32.67;19.33;;;;;;;3.37;95.75;99463.25;4991570;28;20208;-61
2024/01/01 03:40:08;;;;;;;34.60;20.33;;;;;;;3.38;95.12;99459.84;4992920;28;20200;-65
2024/01/01 03:42:36;;;;;;;29.10;18.43;;;;;;;3.42;95.44;99470.06;4992653;28;20212;-62
2024/01/01 03:45:04;;;;;;;31.73;19.03;;;;;;;3.44;95.39;99465.84;4992591;28;20212;-61
2024/01/01 03:47:33;;;;;;;31.17;19.53;;;;;;;3.48;95.31;99467.56;4992576;28;20204;-61
2024/01/01 03:50:05;;;;;;;31.17;19.67;;;;;;;3.48;94.85;99470.13;4992797;28;20613;-61
2024/01/01 03:52:33;;;;;;;30.40;19.50;;;;;;;3.50;94.56;99473.50;4991421;28;20200;-63
2024/01/01 03:55:03;;;;;;;32.20;18.50;;;;;;;3.48;94.60;99470.13;4992566;28;20580;-61
2024/01/01 03:57:32;;;;;;;30.87;19.63;;;;;;;3.47;94.12;99468.44;4992374;28;20196;-60
2024/01/01 04:00:01;;;;;;;29.60;18.80;;;;;;;3.43;94.85;99465.00;4992273;28;20303;-60
2024/01/01 04:02:30;;;;;;;29.37;18.93;;;;;;;3.41;94.33;99450.53;4992450;28;20308;-61
2024/01/01 04:04:58;;;;;;;30.83;18.90;;;;;;;3.38;94.16;99457.31;4992223;28;20212;-60
2024/01/01 04:07:28;;;;;;;34.27;19.80;;;;;;;3.36;94.65;99459.00;4992268;28;20215;-62
2024/01/01 04:09:56;;;;;;;33.73;19.33;;;;;;;3.36;94.66;99456.47;4991196;28;20210;-64
2024/01/01 04:12:24;;;;;;;31.13;20.20;;;;;;;3.36;94.79;99447.97;4992406;28;20740;-62
2024/01/01 04:14:51;;;;;;;33.10;20.17;;;;;;;3.36;95.12;99437.78;4992717;28;20608;-61
2024/01/01 04:17:19;;;;;;;29.90;19.70;;;;;;;3.35;95.38;99436.94;4991887;28;20559;-60
2024/01/01 04:19:48;;;;;;;33.97;20.43;;;;;;;3.38;95.54;99436.09;4992115;28;20211;-62
2024/01/01 04:22:16;;;;;;;35.07;21.00;;;;;;;3.38;95.31;99434.38;4991712;28;20236;-59
2024/01/01 04:24:46;;;;;;;31.43;19.97;;;;;;;3.42;95.29;99431.88;4992342;28;20230;-60
2024/01/01 04:27:13;;;;;;;34.03;20.40;;;;;;;3.43;95.99;99441.22;4990927;28;20251;-59
2024/01/01 04:29:41;;;;;;;34.87;20.73;;;;;;;3.44;95.56;99436.13;4992070;28;20618;-60
2024/01/01 04:32:09;;;;;;;34.37;20.57;;;;;;;3.47;95.15;99437.88;4991734;28;20254;-62
2024/01/01 04:34:37;;;;;;;33.23;21.37;;;;;;;3.46;94.83;99436.13;4991897;28;20211;-61
2024/01/01 04:37:05;;;;;;;34.67;19.13;;;;;;;3.48;94.83;99426.81;4992045;28;20242;-60
2024/01/01 04:39:33;;;;;;;30.37;19.10;;;;;;;3.46;94.62;99421.75;4991743;28;20350;-62
2024/01/01 04:42:03;;;;;;;31.20;19.40;;;;;;;3.47;95.24;99423.44;4990281;28;20315;-61
2024/01/01 04:44:31;;;;;;;33.43;19.73;;;;;;;3.46;95.19;99418.31;4991654;28;20204;-60
2024/01/01 04:47:00;;;;;;;34.77;20.40;;;;;;;3.45;94.85;99407.28;4992090;28;20763;-60
2024/01/01 04:49:28;;;;;;;30.10;18.40;;;;;;;3.46;95.27;99413.22;4990245;28;20299;-59
2024/01/01 04:51:56;;;;;;;32.37;19.90;;;;;;;3.47;95.20;99412.41;4991826;28;20632;-59
2024/01/01 04:54:24;;;;;;;30.80;19.67;;;;;;;3.50;95.18;99415.81;4991947;28;20678;-60
2024/01/01 04:56:52;;;;;;;34.83;19.77;;;;;;;3.54;95.45;99411.59;4991884;28;20211;-60
2024/01/01 04:59:21;;;;;;;32.27;20.63;;;;;;;3.57;95.50;99402.28;4991847;28;20695;-61
2024/01/01 05:01:48;;;;;;;32.70;19.73;;;;;;;3.60;95.26;99412.47;4991317;28;20303;-63
2024/01/01 05:04:17;;;;;;;32.57;19.60;;;;;;;3.65;95.16;99416.75;4991780;28;20234;-62
2024/01/01 05:06:45;;;;;;;32.27;20.47;;;;;;;3.68;94.97;99415.06;4990839;28;20663;-60
2024/01/01 05:09:12;;;;;;;35.20;20.30;;;;;;;3.74;94.56;99415.09;4991632;28;20258;-60
2024/01/01 05:11:41;;;;;;;32.10;19.37;;;;;;;3.77;94.56;99420.22;4991609;28;20290;-60
2024/01/01 05:14:09;;;;;;;31.53;19.57;;;;;;;3.80;94.28;99411.75;4991401;28;20192;-61
2024/01/01 05:16:39;;;;;;;32.13;19.20;;;;;;;3.83;94.26;99404.97;4991298;28;20240;-60
2024/01/01 05:19:07;;;;;;;29.63;19.33;;;;;;;3.85;93.73;99418.56;4991580;28;20593;-61
2024/01/01 05:21:35;;;;;;;31.63;19.93;;;;;;;3.87;93.76;99411.78;4990371;28;20328;-61
2024/01/01 05:24:03;;;;;;;29.67;19.40;;;;;;;3.87;93.28;99404.16;4991395;28;20708;-61
2024/01/01 05:26:31;;;;;;;35.73;21.33;;;;;;;3.90;93.38;99407.53;4991404;28;20208;-62
2024/01/01 05:28:58;;;;;;;34.30;20.07;;;;;;;3.90;93.02;99412.63;4991654;28;20672;-61
2024/01/01 05:31:26;;;;;;;38.27;21.10;;;;;;;3.91;93.18;99411.81;4991141;28;20219;-60
2024/01/01 05:33:56;;;;;;;33.10;20.67;;;;;;;3.94;93.06;99412.69;4991606;28;20301;-60
2024/01/01 05:36:24;;;;;;;37.97;21.70;;;;;;;3.95;93.16;99410.97;4991134;28;20204;-60
2024/01/01 05:38:52;;;;;;;37.63;21.80;;;;;;;3.95;92.04;99413.53;4990206;28;20213;-61
2024/01/01 05:41:19;;;;;;;34.33;21.43;;;;;;;3.95;92.23;99408.44;4991549;28;20673;-60
2024/01/01 05:43:47;;;;;;;37.23;20.70;;;;;;;3.92;92.53;99409.25;4991188;28;20216;-60
2024/01/01 05:46:15;;;;;;;39.70;23.10;;;;;;;3.90;92.23;99405.00;4991602;28;20777;-61
2024/01/01 05:48:43;;;;;;;37.93;22.90;;;;;;;3.90;92.84;99410.09;4991329;28;20678;-64
2024/01/01 05:51:13;;;;;;;37.27;21.63;;;;;;;3.91;92.59;99406.72;4982822;28;20204;-61
2024/01/01 05:53:41;;;;;;;34.70;22.20;;;;;;;3.92;92.19;99403.31;4991632;28;20263;-62
2024/01/01 05:56:09;;;;;;;37.53;23.00;;;;;;;3.95;92.20;99396.53;4993866;28;20713;-60
2024/01/01 05:58:37;;;;;;;40.37;22.83;;;;;;;3.96;92.41;99395.69;4994471;28;20262;-62
2024/01/01 06:01:05;;;;;;;33.00;21.37;;;;;;;3.97;92.10;99391.44;4994557;28;20204;-61
2024/01/01 06:03:33;;;;;;;34.77;21.67;;;;;;;3.97;91.95;99399.94;4994744;28;20675;-60
2024/01/01 06:06:01;;;;;;;40.10;22.37;;;;;;;3.97;91.81;99397.38;4994521;28;20298;-61
2024/01/01 06:08:33;;;;;;;40.17;22.60;;;;;;;3.98;91.48;99398.25;4994656;28;20679;-60
2024/01/01 06:11:01;;;;;;;40.13;21.83;;;;;;;3.98;91.71;99399.09;4983708;28;20204;-65
2024/01/01 06:13:29;;;;;;;36.87;22.10;;;;;;;3.98;91.62;99393.16;4993240;28;20208;-61
2024/01/01 06:15:58;;;;;;;39.37;21.10;;;;;;;3.98;91.96;99388.91;4994257;28;20203;-62
2024/01/01 06:18:27;;;;;;;35.97;21.20;;;;;;;3.98;91.51;99388.06;4986135;28;20216;-61
2024/01/01 06:20:56;;;;;;;34.93;21.70;;;;;;;4.01;91.66;99395.69;4994300;28;20208;-58
2024/01/01 06:23:24;;;;;;;39.53;22.80;;;;;;;3.98;91.58;99391.47;4993992;28;20320;-69
2024/01/01 06:25:54;;;;;;;38.67;22.77;;;;;;;3.99;91.37;99395.69;4993877;28;20295;-60
2024/01/01 06:28:22;;;;;;;42.33;23.80;;;;;;;3.96;91.48;99398.22;4993261;28;20986;-62
2024/01/01 06:30:50;;;;;;;41.07;23.40;;;;;;;3.91;91.55;99399.06;4994358;28;20656;-60
2024/01/01 06:33:18;;;;;;;38.77;21.90;;;;;;;3.82;91.65;99398.16;4994209;28;20594;-61
2024/01/01 06:35:46;;;;;;;39.73;23.73;;;;;;;3.84;91.75;99401.56;4994337;28;20714;-60
2024/01/01 06:38:14;;;;;;;42.43;23.67;;;;;;;3.84;91.71;99400.72;4993718;28;20212;-61
2024/01/01 06:40:43;;;;;;;40.03;23.43;;;;;;;3.83;91.81;99399.88;4994174;28;20290;-59
2024/01/01 06:43:13;;;;;;;41.13;22.97;;;;;;;3.82;92.03;99390.50;4993659;28;20219;-59
2024/01/01 06:45:40;;;;;;;43.50;24.10;;;;;;;3.83;91.82;99393.94;4993016;28;20609;-60
2024/01/01 06:48:11;;;;;;;37.50;22.60;;;;;;;3.84;91.72;99395.63;4994031;28;20200;-60
2024/01/01 06:50:39;;;;;;;42.87;23.57;;;;;;;3.83;92.02;99389.69;4991748;28;20227;-63
2024/01/01 06:53:07;;;;;;;44.10;24.27;;;;;;;3.84;91.74;99391.38;4993549;28;20219;-60
2024/01/01 06:55:35;;;;;;;43.27;25.27;;;;;;;3.84;91.80;99398.19;4991237;28;20276;-63
2024/01/01 06:58:03;;;;;;;39.03;24.40;;;;;;;3.79;91.79;99397.28;4993565;28;20212;-62
2024/01/01 07:00:33;;;;;;;40.23;23.30;;;;;;;3.78;91.61;99395.59;4993340;28;20259;-61
2024/01/01 07:03:01;;;;;;;45.97;25.37;;;;;;;3.77;91.50;99394.75;4993485;28;20200;-61
2024/01/01 07:05:29;;;;;;;42.60;23.43;;;;;;;3.77;91.78;99396.44;4992252;28;20200;-63
2024/01/01 07:07:58;;;;;;;45.60;26.13;;;;;;;3.79;91.87;99398.16;4993320;28;20223;-60
2024/01/01 07:10:26;;;;;;;47.37;25.27;;;;;;;3.79;91.91;99402.38;4993385;28;20743;-60
2024/01/01 07:12:54;;;;;;;51.23;25.67;;;;;;;3.80;91.96;99399.84;4993752;28;20685;-59
2024/01/01 07:15:22;;;;;;;49.87;25.57;;;;;;;3.79;92.08;99382.88;4990853;28;20208;-61
2024/01/01 07:17:51;;;;;;;48.43;27.07;;;;;;;3.81;91.71;99395.63;4992941;28;20219;-60
2024/01/01 07:20:19;;;;;;;49.37;24.60;;;;;;;3.85;91.89;99407.53;4993009;28;20208;-60
2024/01/01 07:22:47;;;;;;;47.83;25.70;;;;;;;3.87;92.48;99406.69;4992854;28;20239;-59
2024/01/01 07:25:15;;;;;;;53.03;26.00;;;;;;;3.92;92.47;99408.41;4993179;28;20219;-60
2024/01/01 07:27:43;;;;;;;52.83;26.77;;;;;;;3.95;92.15;99403.34;4992929;28;20204;-60
2024/01/01 07:30:12;;;;;;;49.03;26.70;;;;;;;3.97;92.00;99405.03;4991982;28;20220;-61
2024/01/01 07:32:40;;;;;;;48.20;25.70;;;;;;;4.02;91.95;99400.81;4992865;28;20243;-59
2024/01/01 07:35:09;;;;;;;50.10;26.87;;;;;;;4.05;92.02;99400.84;4992596;28;20243;-59
2024/01/01 07:37:37;;;;;;;49.03;24.60;;;;;;;4.07;91.91;99400.81;4992650;28;20574;-60
2024/01/01 07:40:07;;;;;;;50.57;26.00;;;;;;;4.09;92.06;99401.69;4992911;28;20197;-61
2024/01/01 07:42:35;;;;;;;51.83;26.33;;;;;;;4.11;91.84;99405.09;4992969;28;20792;-61
2024/01/01 07:45:04;;;;;;;44.43;24.53;;;;;;;4.14;91.83;99401.72;4992281;28;20231;-62
2024/01/01 07:47:31;;;;;;;41.83;23.37;;;;;;;4.16;91.86;99398.34;4990028;28;20203;-62
2024/01/01 07:50:00;;;;;;;44.67;23.00;;;;;;;4.16;91.66;99403.44;4990595;28;20210;-61
2024/01/01 07:52:29;;;;;;;41.63;22.03;;;;;;;4.16;91.43;99403.44;4992630;28;20263;-61
2024/01/01 07:54:57;;;;;;;41.70;23.50;;;;;;;4.17;91.05;99402.56;4992200;28;20207;-59
2024/01/01 07:57:25;;;;;;;39.47;23.00;;;;;;;4.17;90.88;99409.38;4992469;28;20282;-60
2024/01/01 07:59:56;;;;;;;47.27;26.33;;;;;;;4.16;90.77;99417.84;4992682;28;20574;-60
2024/01/01 08:02:24;;;;;;;43.63;24.43;;;;;;;4.16;90.65;99408.53;4992380;28;20765;-61
2024/01/01 08:04:54;;;;;;;47.40;25.67;;;;;;;4.18;90.49;99405.97;4992043;28;20211;-61
2024/01/01 08:07:22;;;;;;;51.17;26.27;;;;;;;4.19;90.22;99402.56;4991854;28;20559;-62
2024/01/01 08:09:52;;;;;;;47.30;26.73;;;;;;;4.20;90.35;99399.16;4992272;28;20204;-63
2024/01/01 08:12:20;;;;;;;54.57;26.50;;;;;;;4.21;89.88;99398.34;4992406;28;20231;-61
2024/01/01 08:14:47;;;;;;;50.07;26.37;;;;;;;4.20;89.79;99392.41;4992355;28;20204;-59
2024/01/01 08:17:15;;;;;;;47.63;25.63;;;;;;;4.20;89.76;99400.03;4991878;28;20227;-62
2024/01/01 08:19:43;;;;;;;49.17;26.33;;;;;;;4.18;89.73;99388.97;4992415;28;20640;-59
2024/01/01 08:22:11;;;;;;;54.13;27.57;;;;;;;4.18;89.75;99394.06;4991097;28;20326;-57
2024/01/01 08:24:39;;;;;;;46.57;25.23;;;;;;;4.19;89.86;99393.22;4979186;28;20709;-60
2024/01/01 08:27:08;;;;;;;51.20;26.27;;;;;;;4.18;89.79;99395.78;4992136;28;20215;-65
2024/01/01 08:29:37;;;;;;;44.53;24.43;;;;;;;4.17;89.64;99389.84;4991789;28;20200;-59
2024/01/01 08:32:06;;;;;;;51.13;26.90;;;;;;;4.16;89.61;99389.81;4991879;28;20210;-61
2024/01/01 08:34:34;;;;;;;49.50;25.23;;;;;;;4.15;90.13;99386.41;4991983;28;20660;-61
2024/01/01 08:37:04;;;;;;;50.87;25.37;;;;;;;4.14;90.03;99383.88;4991890;28;20208;-60
2024/01/01 08:39:32;;;;;;;59.17;27.27;;;;;;;4.12;90.18;99394.03;4991109;28;20627;-62
2024/01/01 08:41:59;;;;;;;50.77;25.50;;;;;;;4.09;89.97;99397.44;4991755;28;20203;-65
2024/01/01 08:44:29;;;;;;;49.60;25.10;;;;;;;4.05;90.15;99390.63;4992025;28;20750;-61
2024/01/01 08:46:57;;;;;;;50.23;25.83;;;;;;;4.03;89.58;99391.47;4991839;28;20235;-60
2024/01/01 08:49:25;;;;;;;53.83;25.83;;;;;;;3.99;89.66;99390.59;4991835;28;20211;-61
2024/01/01 08:51:53;;;;;;;54.10;26.50;;;;;;;3.98;90.48;99385.50;4990858;28;20243;-61
2024/01/01 08:54:21;;;;;;;50.80;25.77;;;;;;;3.99;90.41;99385.50;4991767;28;20196;-61
2024/01/01 08:56:49;;;;;;;49.00;25.67;;;;;;;4.00;90.94;99377.00;4991962;28;20568;-60
2024/01/01 08:59:17;;;;;;;48.17;26.00;;;;;;;4.02;90.62;99379.56;4991860;28;20247;-64
2024/01/01 09:01:46;;;;;;;48.07;24.93;;;;;;;4.04;91.06;99382.97;4991657;28;20726;-61
2024/01/01 09:04:14;;;;;;;50.63;25.20;;;;;;;4.06;90.98;99388.94;4991414;28;20204;-62
2024/01/01 09:06:42;;;;;;;46.73;24.43;;;;;;;4.07;91.21;99380.44;4991470;28;20215;-60
2024/01/01 09:09:11;;;;;;;48.97;25.33;;;;;;;4.10;90.97;99393.19;4989435;28;20200;-61
2024/01/01 09:11:39;;;;;;;53.93;25.47;;;;;;;4.12;91.36;99381.28;4991700;28;20667;-61
2024/01/01 09:14:07;;;;;;;49.17;26.13;;;;;;;4.15;90.91;99383.00;4991513;28;20565;-62
2024/01/01 09:16:37;;;;;;;45.37;24.90;;;;;;;4.15;91.32;99375.38;4991483;28;20282;-61
2024/01/01 09:19:07;;;;;;;48.77;25.67;;;;;;;4.16;91.05;99375.38;4991509;28;20204;-61
2024/01/01 09:21:35;;;;;;;50.57;25.40;;;;;;;4.19;90.97;99380.47;4991457;28;20208;-61
2024/01/01 09:24:03;;;;;;;49.33;24.37;;;;;;;4.22;91.18;99384.75;4991660;28;20559;-63
2024/01/01 09:26:31;;;;;;;50.40;25.40;;;;;;;4.23;91.18;99376.22;4990808;28;20636;-62
2024/01/01 09:28:59;;;;;;;49.30;24.33;;;;;;;4.27;91.47;99376.28;4992703;28;20663;-60
2024/01/01 09:31:27;;;;;;;48.57;26.00;;;;;;;4.29;91.30;99368.63;4995091;28;20243;-61
2024/01/01 09:34:00;;;;;;;48.17;25.13;;;;;;;4.30;91.22;99370.31;4995297;28;20644;-63
2024/01/01 09:36:30;;;;;;;55.60;25.40;;;;;;;4.32;91.57;99369.47;4994924;28;20216;-61
2024/01/01 09:38:58;;;;;;;46.67;25.03;;;;;;;4.34;91.01;99369.47;4995154;28;20673;-63
2024/01/01 09:41:26;;;;;;;48.93;23.53;;;;;;;4.34;91.31;99359.25;4993994;28;20200;-60
2024/01/01 09:43:55;;;;;;;53.67;26.20;;;;;;;4.36;91.18;99358.44;4994960;28;20212;-61
2024/01/01 09:46:25;;;;;;;47.97;24.20;;;;;;;4.36;91.21;99355.88;4988753;28;20231;-62
2024/01/01 09:48:53;;;;;;;46.07;23.93;;;;;;;4.38;91.19;99353.31;4995206;28;20670;-62
2024/01/01 09:51:20;;;;;;;43.40;24.03;;;;;;;4.38;91.29;99352.47;4993709;28;20207;-61
2024/01/01 09:53:51;;;;;;;48.00;25.17;;;;;;;4.42;91.33;99356.72;4994875;28;20204;-64
2024/01/01 09:56:20;;;;;;;51.50;25.93;;;;;;;4.42;91.18;99354.19;4995000;28;20204;-61
2024/01/01 09:58:48;;;;;;;49.80;26.23;;;;;;;4.41;91.53;99348.22;4992544;28;20210;-61
2024/01/01 10:01:18;;;;;;;49.30;24.63;;;;;;;4.41;91.29;99347.38;4994932;28;20271;-61
2024/01/01 10:04:00;;;;;;;52.67;25.50;;;;;;;4.43;91.05;99345.69;4994526;28;20215;-61
2024/01/01 10:06:28;;;;;;;45.53;24.13;;;;;;;4.43;91.44;99344.00;4994528;28;20335;-60
2024/01/01 10:09:07;;;;;;;46.73;24.67;;;;;;;4.44;91.12;99342.28;4993783;28;20219;-62
2024/01/01 10:11:38;;;;;;;45.03;24.63;;;;;;;4.43;90.97;99343.16;4994512;28;20208;-61
2024/01/01 10:14:07;;;;;;;50.43;28.27;;;;;;;4.46;91.04;99345.72;4994271;28;20259;-62
2024/01/01 10:16:38;;;;;;;47.43;23.97;;;;;;;4.45;90.90;99347.38;4994413;28;20200;-62
2024/01/01 10:19:07;;;;;;;46.83;25.67;;;;;;;4.47;91.23;99345.69;4994108;28;20291;-61
2024/01/01 10:21:38;;;;;;;40.50;23.43;;;;;;;4.46;90.69;99335.50;4994177;28;20207;-61
2024/01/01 10:24:16;;;;;;;42.47;23.83;;;;;;;4.46;90.83;99335.50;4993413;28;20204;-61
2024/01/01 10:27:01;;;;;;;41.50;24.00;;;;;;;4.45;90.98;99333.78;4994412;28;20215;-61
2024/01/01 10:29:34;;;;;;;37.80;23.03;;;;;;;4.41;90.93;99329.53;4993729;28;20204;-61
2024/01/01 10:32:02;;;;;;;42.27;22.47;;;;;;;4.37;90.63;99328.66;4994154;28;20298;-62
2024/01/01 10:34:32;;;;;;;37.80;22.07;;;;;;;4.33;90.82;99330.38;4994378;28;20299;-62
2024/01/01 10:37:00;;;;;;;34.53;20.00;;;;;;;4.30;90.53;99330.34;4994241;28;20200;-61
2024/01/01 10:39:33;;;;;;;32.30;20.23;;;;;;;4.28;90.93;99324.41;4993694;28;20200;-60
2024/01/01 10:42:02;;;;;;;33.97;19.47;;;;;;;4.27;91.20;99325.28;4993083;28;20308;-60
2024/01/01 10:44:30;;;;;;;35.77;21.07;;;;;;;4.24;91.28;99322.72;4994099;28;20667;-61
2024/01/01 10:46:59;;;;;;;32.33;20.00;;;;;;;4.15;90.23;99320.13;4993599;28;20223;-59
2024/01/01 10:49:30;;;;;;;30.13;19.80;;;;;;;4.10;90.76;99321.81;4993704;28;20200;-64
2024/01/01 10:52:13;;;;;;;34.10;19.80;;;;;;;4.08;91.11;99318.41;4993964;28;20212;-61
2024/01/01 10:55:11;;;;;;;33.27;20.70;;;;;;;4.06;90.59;99322.66;4993124;28;20246;-60
2024/01/01 10:58:00;;;;;;;28.57;17.47;;;;;;;4.06;91.54;99313.31;4993930;28;20283;-61
2024/01/01 11:00:34;;;;;;;38.90;19.50;;;;;;;4.10;92.17;99311.63;4993491;28;20228;-53
2024/01/01 11:03:03;;;;;;;29.77;18.83;;;;;;;4.14;91.38;99318.44;4994071;28;20648;-54
2024/01/01 11:05:32;;;;;;;29.30;17.77;;;;;;;4.14;91.75;99317.59;4993479;28;20220;-63
2024/01/01 11:08:01;;;;;;;26.90;18.43;;;;;;;4.14;91.60;99312.47;4993318;28;20204;-63
2024/01/01 11:10:42;;;;;;;27.07;17.67;;;;;;;4.13;91.26;99306.53;4993231;28;20200;-64
2024/01/01 11:13:14;;;;;;;21.83;15.97;;;;;;;4.16;91.49;99303.13;4993510;28;20759;-63
2024/01/01 11:15:45;;;;;;;23.87;16.07;;;;;;;4.15;91.53;99296.34;4993159;28;20200;-63
2024/01/01 11:18:15;;;;;;;23.00;15.43;;;;;;;4.15;91.41;99288.69;4993589;28;20572;-63
2024/01/01 11:20:55;;;;;;;23.67;15.43;;;;;;;4.14;91.11;99287.00;4989557;28;20223;-61
2024/01/01 11:23:40;;;;;;;22.23;15.10;;;;;;;4.11;91.10;99278.47;4992937;28;20279;-63
2024/01/01 11:26:31;;;;;;;22.87;14.60;;;;;;;4.14;91.23;99280.19;4992153;28;20212;-64
2024/01/01 11:29:02;;;;;;;23.33;15.73;;;;;;;4.15;91.45;99269.13;4992886;28;20228;-62
2024/01/01 11:31:32;;;;;;;21.17;14.97;;;;;;;4.16;91.38;99281.06;4993165;28;20208;-65
2024/01/01 11:34:07;;;;;;;24.77;16.30;;;;;;;4.18;91.33;99286.16;4992998;28;20211;-63